AYPY/POM METAR and TAF weather

Enter ICAO airport designator
Station Type Date Time Source
AYPY METAR 2021/02/27 03:00 UTC NOAA

AYPY 270300Z 28011KT 9999 HZ SCT040 33/23 Q1006


Station Type Date Time Source
AYPY Decoded METAR 2021/02/27 03:00 UTC NOAA

Moresby, Papua New Guinea (AYPY) 09-26S 147-13E 49M
Feb 26, 2021 - 10:00 PM EST / 2021.02.27 0300 UTC
Wind: from the W (280 degrees) at 13 MPH (11 KT):0
Visibility: greater than 7 mile(s):0
Sky conditions: partly cloudy
Weather: haze
Temperature: 91 F (33 C)
Heat index: 99.1 F (37.3 C):1
Dew Point: 73 F (23 C)
Relative Humidity: 55%
Pressure (altimeter): 29.71 in. Hg (1006 hPa)
ob: AYPY 270300Z 28011KT 9999 HZ SCT040 33/23 Q1006
cycle: 3

Station Type Date Time Source
AYPY TAF 2021/02/26 18:09 UTC NOAA

TAF TAF AYPY 261544Z 2618/2718 VRB03KT 9999 SCT040
FM262200 VRB03KT 9999 BKN040
FM270000 26006KT 9999 SCT018
FM270400 26010KT 9999 -SHRA SCT018 BKN040 PROB30 2619/2621 0600 FG PROB30 INTER 2705/2708 5000 SHRA BKN010

Example: see airport list